Time;durP1;ratioP1;P1;durP2;ratioP2;P2;SDS_P1;SDS_P2;PMS_P1;PMS_P2;Temp;Humidity;BMP_temperature;BMP_pressure;BME280_temperature;BME280_humidity;BME280_pressure;Samples;Min_cycle;Max_cycle;Signal;HPM_P1;HPM_P2
2022/07/07 00:00:21;;;;;;;6.60;4.25;;;17.10;99.90;;;;;;5052683;28;20037;-69
2022/07/07 00:02:48;;;;;;;5.07;3.20;;;17.40;99.90;;;;;;5055650;28;20051;-68
2022/07/07 00:05:13;;;;;;;6.50;3.15;;;17.50;99.90;;;;;;5072651;28;20085;-68
2022/07/07 00:07:39;;;;;;;7.47;3.03;;;17.30;99.90;;;;;;5072896;28;20113;-69
2022/07/07 00:10:05;;;;;;;5.93;2.72;;;17.40;99.90;;;;;;5073684;28;20401;-68
2022/07/07 00:12:31;;;;;;;3.95;2.60;;;17.20;99.90;;;;;;5074015;28;20036;-69
2022/07/07 00:14:57;;;;;;;9.75;2.70;;;17.20;99.90;;;;;;5054646;28;20052;-68
2022/07/07 00:17:23;;;;;;;9.70;2.78;;;17.50;99.90;;;;;;5054149;28;20072;-70
2022/07/07 00:19:48;;;;;;;7.05;3.40;;;17.30;99.90;;;;;;5083573;22;20188;-69
2022/07/07 00:22:14;;;;;;;8.90;3.45;;;17.20;99.90;;;;;;5074259;28;20052;-70
2022/07/07 00:24:40;;;;;;;7.10;2.60;;;17.40;99.90;;;;;;5057190;28;20037;-71
2022/07/07 00:27:05;;;;;;;6.47;2.88;;;17.10;99.90;;;;;;5053083;28;20049;-71
2022/07/07 00:29:31;;;;;;;8.68;3.30;;;18.70;99.90;;;;;;5052341;28;20124;-71
2022/07/07 00:31:56;;;;;;;4.80;2.40;;;16.80;99.90;;;;;;5036159;28;20434;-70
2022/07/07 00:34:22;;;;;;;4.03;2.03;;;17.10;99.90;;;;;;5066314;28;20131;-70
2022/07/07 00:36:48;;;;;;;9.82;2.67;;;16.60;99.90;;;;;;5072682;28;20067;-72
2022/07/07 00:39:13;;;;;;;13.82;2.70;;;18.00;99.90;;;;;;5073538;28;20564;-70
2022/07/07 00:41:39;;;;;;;8.25;2.15;;;16.80;99.90;;;;;;5072638;28;20040;-70
2022/07/07 00:44:06;;;;;;;8.60;2.60;;;18.50;99.90;;;;;;5061032;28;20036;-71
2022/07/07 00:46:46;;;;;;;6.10;2.83;;;17.60;99.90;;;;;;5053450;28;20041;-70
2022/07/07 00:49:12;;;;;;;8.70;2.78;;;16.80;99.90;;;;;;5036382;28;20095;-70
2022/07/07 00:51:41;;;;;;;7.28;3.17;;;16.40;99.90;;;;;;5053317;28;20040;-70
2022/07/07 00:54:08;;;;;;;6.18;2.80;;;16.70;99.90;;;;;;5063137;28;20079;-70
2022/07/07 00:56:34;;;;;;;9.93;3.28;;;16.80;99.90;;;;;;5072180;28;20041;-70
2022/07/07 00:59:02;;;;;;;9.35;3.05;;;16.60;99.90;;;;;;5055209;28;20426;-70
2022/07/07 01:01:29;;;;;;;13.50;3.78;;;16.60;99.90;;;;;;5055693;28;20044;-70
2022/07/07 01:03:55;;;;;;;7.30;3.33;;;16.70;99.90;;;;;;5062348;28;20161;-70
2022/07/07 01:06:21;;;;;;;11.57;3.35;;;16.70;99.90;;;;;;5052113;28;20487;-70
2022/07/07 01:08:47;;;;;;;8.70;2.92;;;16.30;99.90;;;;;;5054224;28;20060;-70
2022/07/07 01:11:12;;;;;;;7.60;3.58;;;16.60;99.90;;;;;;5051703;28;20033;-70
2022/07/07 01:13:39;;;;;;;7.63;3.28;;;16.60;99.90;;;;;;5058896;28;20084;-71
2022/07/07 01:16:04;;;;;;;9.27;3.58;;;17.70;99.90;;;;;;5073295;28;20059;-71
2022/07/07 01:18:30;;;;;;;14.43;4.90;;;16.40;99.90;;;;;;5072137;28;20040;-70
2022/07/07 01:20:58;;;;;;;14.57;3.85;;;17.30;99.90;;;;;;5071474;28;20037;-70
2022/07/07 01:23:24;;;;;;;13.43;5.15;;;16.70;99.90;;;;;;5066783;28;20045;-70
2022/07/07 01:25:49;;;;;;;11.98;4.20;;;16.70;99.90;;;;;;5052010;28;20048;-69
2022/07/07 01:28:15;;;;;;;11.85;4.82;;;17.70;99.90;;;;;;5071716;28;20028;-70
2022/07/07 01:30:41;;;;;;;7.88;4.22;;;16.80;99.90;;;;;;5071501;28;20090;-71
2022/07/07 01:33:06;;;;;;;16.75;4.28;;;16.40;99.90;;;;;;5069384;28;20060;-72
2022/07/07 01:35:32;;;;;;;8.27;3.22;;;16.40;99.90;;;;;;5051659;28;20415;-70
2022/07/07 01:37:58;;;;;;;9.82;3.63;;;16.60;99.90;;;;;;5051700;28;20560;-70
2022/07/07 01:40:23;;;;;;;14.77;3.40;;;16.60;99.90;;;;;;5051292;28;20037;-70
2022/07/07 01:42:49;;;;;;;10.40;4.00;;;17.00;99.90;;;;;;5051409;28;20415;-70
2022/07/07 01:45:14;;;;;;;12.20;3.28;;;16.60;99.90;;;;;;5070792;28;20517;-70
2022/07/07 01:47:40;;;;;;;6.95;3.78;;;16.50;99.90;;;;;;5072824;28;20072;-70
2022/07/07 01:50:06;;;;;;;8.63;3.08;;;16.90;99.90;;;;;;5072414;28;20032;-72
2022/07/07 01:52:31;;;;;;;11.70;3.03;;;16.40;99.90;;;;;;5071307;28;20044;-70
2022/07/07 01:54:57;;;;;;;10.00;2.90;;;16.60;99.90;;;;;;5054270;28;20041;-70
2022/07/07 01:57:23;;;;;;;9.75;2.75;;;16.40;99.90;;;;;;5051503;28;20040;-70
2022/07/07 01:59:48;;;;;;;8.95;2.90;;;16.70;99.90;;;;;;5052136;28;20095;-71
2022/07/07 02:02:14;;;;;;;10.13;2.67;;;16.70;99.90;;;;;;5052444;28;20033;-70
2022/07/07 02:04:39;;;;;;;12.38;2.85;;;17.90;99.90;;;;;;5068213;28;20044;-71
2022/07/07 02:07:05;;;;;;;5.80;2.15;;;16.40;99.90;;;;;;5071989;28;20044;-70
2022/07/07 02:09:31;;;;;;;12.02;2.95;;;16.80;99.90;;;;;;5053821;28;20567;-70
2022/07/07 02:11:56;;;;;;;14.07;2.65;;;16.60;99.90;;;;;;5063315;28;20394;-70
2022/07/07 02:14:22;;;;;;;7.45;2.20;;;16.40;99.90;;;;;;5052044;28;20049;-70
2022/07/07 02:16:47;;;;;;;14.77;2.90;;;16.50;99.90;;;;;;5052140;28;20037;-70
2022/07/07 02:19:13;;;;;;;10.88;2.65;;;16.50;99.90;;;;;;5051566;28;20050;-70
2022/07/07 02:21:38;;;;;;;9.95;2.90;;;16.50;99.90;;;;;;5055375;28;20040;-70
2022/07/07 02:24:04;;;;;;;12.90;2.28;;;16.70;99.90;;;;;;5070633;28;20048;-70
2022/07/07 02:26:34;;;;;;;8.23;2.45;;;16.60;99.90;;;;;;5070875;28;20029;-70
2022/07/07 02:29:00;;;;;;;5.07;1.83;;;16.30;99.90;;;;;;5070533;28;20036;-72
2022/07/07 02:31:26;;;;;;;8.85;1.92;;;17.10;99.90;;;;;;5067148;28;20079;-70
2022/07/07 02:33:51;;;;;;;9.95;2.10;;;16.60;99.90;;;;;;5050628;28;20083;-70
2022/07/07 02:36:19;;;;;;;13.00;2.33;;;17.50;99.90;;;;;;5050482;28;20461;-70
2022/07/07 02:38:45;;;;;;;6.25;1.90;;;16.50;99.90;;;;;;5050409;28;20529;-71
2022/07/07 02:41:11;;;;;;;12.88;2.20;;;16.10;99.90;;;;;;5066098;28;20098;-70
2022/07/07 02:43:37;;;;;;;12.77;3.50;;;16.50;99.90;;;;;;5071946;28;20048;-70
2022/07/07 02:46:03;;;;;;;7.75;2.50;;;16.60;99.90;;;;;;5070656;28;20032;-70
2022/07/07 02:48:29;;;;;;;12.80;2.88;;;16.50;99.90;;;;;;5070461;28;20041;-70
2022/07/07 02:50:55;;;;;;;9.07;2.50;;;16.50;99.90;;;;;;5058542;28;20439;-70
2022/07/07 02:53:21;;;;;;;19.80;3.13;;;16.40;99.90;;;;;;5051919;28;20560;-70
2022/07/07 02:55:47;;;;;;;9.75;2.97;;;16.50;99.90;;;;;;5033653;28;20036;-70
2022/07/07 02:58:19;;;;;;;18.05;3.00;;;16.50;99.90;;;;;;5051555;28;20043;-70
2022/07/07 03:00:46;;;;;;;12.83;2.97;;;16.50;99.90;;;;;;5060644;28;20094;-70
2022/07/07 03:03:11;;;;;;;11.13;2.53;;;17.50;99.90;;;;;;5070201;28;20045;-70
2022/07/07 03:05:37;;;;;;;11.25;2.47;;;16.40;99.90;;;;;;5053754;28;20086;-70
2022/07/07 03:08:03;;;;;;;9.40;2.42;;;17.60;99.90;;;;;;5053499;28;20093;-71
2022/07/07 03:10:29;;;;;;;13.43;2.70;;;16.30;99.90;;;;;;5061244;28;20123;-70
2022/07/07 03:12:55;;;;;;;11.63;3.22;;;16.30;99.90;;;;;;5051471;28;20558;-70
2022/07/07 03:15:20;;;;;;;8.38;2.25;;;16.20;99.90;;;;;;5050130;28;20041;-70
2022/07/07 03:17:49;;;;;;;16.48;2.35;;;16.30;99.90;;;;;;5051340;28;20139;-70
2022/07/07 03:20:16;;;;;;;9.38;1.90;;;16.10;99.90;;;;;;5059277;28;20043;-70
2022/07/07 03:22:42;;;;;;;10.75;2.40;;;16.20;99.90;;;;;;5074220;28;20041;-70
2022/07/07 03:25:09;;;;;;;21.50;2.63;;;16.30;99.90;;;;;;5073977;28;20037;-70
2022/07/07 03:27:35;;;;;;;13.70;3.65;;;16.40;99.90;;;;;;5075223;28;20719;-70
2022/07/07 03:30:05;;;;;;;10.60;2.95;;;16.30;99.90;;;;;;5069730;28;20486;-70
2022/07/07 03:32:31;;;;;;;9.23;2.35;;;16.40;99.90;;;;;;5054102;28;20360;-70
2022/07/07 03:34:57;;;;;;;8.70;1.88;;;16.70;99.90;;;;;;5053948;28;20051;-69
2022/07/07 03:37:22;;;;;;;11.13;2.85;;;16.10;99.90;;;;;;5055249;28;20422;-70
2022/07/07 03:39:48;;;;;;;9.90;2.75;;;16.30;99.90;;;;;;5038381;28;20040;-70
2022/07/07 03:42:14;;;;;;;13.85;3.08;;;15.80;99.90;;;;;;5075046;28;20525;-72
2022/07/07 03:44:39;;;;;;;7.30;2.30;;;15.90;99.90;;;;;;5073589;28;20128;-71
2022/07/07 03:47:05;;;;;;;4.53;1.75;;;15.70;99.90;;;;;;5075038;28;20458;-71
2022/07/07 03:49:31;;;;;;;6.80;2.97;;;15.70;99.90;;;;;;5060901;28;20094;-71
2022/07/07 03:51:57;;;;;;;7.90;2.55;;;15.60;99.90;;;;;;5053742;28;20043;-70
2022/07/07 03:54:23;;;;;;;7.60;2.60;;;17.40;99.90;;;;;;5053405;28;20055;-71
2022/07/07 03:56:48;;;;;;;9.65;3.33;;;15.70;99.90;;;;;;5054874;28;20041;-71
2022/07/07 03:59:14;;;;;;;8.88;2.47;;;15.60;99.90;;;;;;5063264;28;20032;-70
2022/07/07 04:01:44;;;;;;;7.43;1.63;;;15.30;99.90;;;;;;5056646;28;20567;-70
2022/07/07 04:04:11;;;;;;;6.35;2.20;;;16.10;99.90;;;;;;5074505;28;20116;-70
2022/07/07 04:06:36;;;;;;;6.57;2.50;;;15.80;99.90;;;;;;5073277;28;20044;-70
2022/07/07 04:09:02;;;;;;;5.90;2.13;;;15.70;99.90;;;;;;5064060;28;20040;-70
2022/07/07 04:11:28;;;;;;;14.27;2.63;;;15.60;99.90;;;;;;5053009;28;20445;-70
2022/07/07 04:13:53;;;;;;;6.00;1.40;;;15.60;99.90;;;;;;5036782;28;20041;-70
2022/07/07 04:16:19;;;;;;;11.30;2.38;;;15.80;99.90;;;;;;5054285;28;20048;-70
2022/07/07 04:18:44;;;;;;;4.45;1.83;;;15.50;99.90;;;;;;5058632;28;20037;-70
2022/07/07 04:21:10;;;;;;;6.18;1.70;;;15.20;99.90;;;;;;5074042;28;20082;-71
2022/07/07 04:23:35;;;;;;;3.65;1.85;;;15.10;99.90;;;;;;5072843;28;20036;-70
2022/07/07 04:26:01;;;;;;;5.00;1.40;;;;;;;;;;5073918;28;20093;-70
2022/07/07 04:28:29;;;;;;;6.13;1.90;;;15.30;99.90;;;;;;5069198;28;20037;-70
2022/07/07 04:30:55;;;;;;;5.90;2.80;;;15.50;99.90;;;;;;5053662;28;20037;-70
2022/07/07 04:33:21;;;;;;;5.50;1.90;;;15.50;99.90;;;;;;5053102;28;20037;-70
2022/07/07 04:35:46;;;;;;;3.97;1.50;;;15.50;99.90;;;;;;5054261;28;20090;-71
2022/07/07 04:38:13;;;;;;;7.60;1.20;;;15.40;99.90;;;;;;5053735;28;20036;-70
2022/07/07 04:40:39;;;;;;;7.63;1.70;;;15.50;99.90;;;;;;5072281;28;20078;-70
2022/07/07 04:43:05;;;;;;;4.63;0.63;;;15.50;99.90;;;;;;5072419;28;20044;-70
2022/07/07 04:45:30;;;;;;;7.78;0.95;;;15.60;99.90;;;;;;5072628;28;20043;-70
2022/07/07 04:47:56;;;;;;;5.22;1.00;;;15.40;99.90;;;;;;5072351;28;20079;-70
2022/07/07 04:50:21;;;;;;;8.77;1.25;;;15.50;99.90;;;;;;5053065;28;20048;-71
2022/07/07 04:52:47;;;;;;;6.53;1.40;;;15.50;99.90;;;;;;5052328;28;20044;-70
2022/07/07 04:55:12;;;;;;;8.10;2.25;;;15.30;99.90;;;;;;5053699;28;20040;-70
2022/07/07 04:57:38;;;;;;;12.23;2.05;;;15.50;99.90;;;;;;5052286;28;20120;-71
2022/07/07 05:00:04;;;;;;;12.82;3.15;;;15.60;99.90;;;;;;5053112;28;20037;-70
2022/07/07 05:02:29;;;;;;;10.95;2.67;;;15.80;99.90;;;;;;5053294;28;20517;-70
2022/07/07 05:04:56;;;;;;;10.20;2.17;;;15.80;99.90;;;;;;5053779;28;20107;-70
2022/07/07 05:07:22;;;;;;;11.45;3.08;;;15.80;99.90;;;;;;5073330;28;20048;-70
2022/07/07 05:09:48;;;;;;;10.40;1.83;;;15.50;99.90;;;;;;5071868;28;20040;-68
2022/07/07 05:12:14;;;;;;;13.52;3.58;;;15.60;99.90;;;;;;5072083;28;20033;-70
2022/07/07 05:14:39;;;;;;;7.57;2.63;;;15.60;99.90;;;;;;5073069;28;20500;-70
2022/07/07 05:17:05;;;;;;;12.30;2.47;;;15.50;99.90;;;;;;5052254;28;20097;-71
2022/07/07 05:19:31;;;;;;;12.45;2.85;;;15.60;99.90;;;;;;5071137;28;20044;-70
2022/07/07 05:21:56;;;;;;;9.68;2.22;;;15.80;99.90;;;;;;5071938;28;20131;-70
2022/07/07 05:24:22;;;;;;;13.43;3.25;;;15.50;99.90;;;;;;5072924;28;20081;-70
2022/07/07 05:26:48;;;;;;;11.73;2.42;;;15.90;99.90;;;;;;5054294;28;20132;-70
2022/07/07 05:29:14;;;;;;;7.10;2.67;;;16.00;99.90;;;;;;5052420;28;20040;-71
2022/07/07 05:31:40;;;;;;;9.65;2.53;;;15.90;99.90;;;;;;5034997;28;20766;-70
2022/07/07 05:34:05;;;;;;;15.82;3.17;;;16.40;99.90;;;;;;5052981;28;20045;-70
2022/07/07 05:36:32;;;;;;;7.35;2.45;;;16.30;99.90;;;;;;5065773;28;20387;-70
2022/07/07 05:38:58;;;;;;;14.52;2.72;;;16.40;99.90;;;;;;5070925;28;20029;-71
2022/07/07 05:41:23;;;;;;;8.70;2.92;;;16.30;99.90;;;;;;5072072;28;20036;-70
2022/07/07 05:43:49;;;;;;;8.90;2.60;;;16.60;99.90;;;;;;5071214;28;20061;-70
2022/07/07 05:46:15;;;;;;;13.07;3.28;;;16.80;99.90;;;;;;5060123;28;20053;-71
2022/07/07 05:48:40;;;;;;;9.18;2.42;;;16.70;99.90;;;;;;5052660;28;20105;-72
2022/07/07 05:51:06;;;;;;;11.20;1.77;;;16.70;99.90;;;;;;5051142;28;20104;-70
2022/07/07 05:53:32;;;;;;;9.35;1.90;;;16.70;99.90;;;;;;5051178;28;20041;-70
2022/07/07 05:55:58;;;;;;;5.30;1.73;;;16.20;99.90;;;;;;5061705;28;20097;-70
2022/07/07 05:58:24;;;;;;;8.15;1.75;;;16.40;99.90;;;;;;5071085;28;20048;-71
2022/07/07 06:00:50;;;;;;;8.90;1.88;;;16.10;99.90;;;;;;5071862;28;20528;-70
2022/07/07 06:03:16;;;;;;;5.85;2.28;;;16.80;99.90;;;;;;5070161;28;20040;-70
2022/07/07 06:05:43;;;;;;;7.28;2.13;;;16.30;99.90;;;;;;5051077;28;20427;-71
2022/07/07 06:08:08;;;;;;;9.30;2.40;;;16.70;99.90;;;;;;5060539;28;20037;-71
2022/07/07 06:10:35;;;;;;;10.52;1.92;;;16.70;99.90;;;;;;5071898;28;20090;-71
2022/07/07 06:13:00;;;;;;;7.43;1.98;;;16.90;99.90;;;;;;5072105;28;20041;-71
2022/07/07 06:15:27;;;;;;;4.13;1.30;;;17.10;99.90;;;;;;5053166;28;20517;-71
2022/07/07 06:17:53;;;;;;;5.40;2.03;;;17.00;99.90;;;;;;5051110;28;20053;-70
2022/07/07 06:20:19;;;;;;;5.05;1.35;;;16.90;99.90;;;;;;5061193;22;20055;-69
2022/07/07 06:22:44;;;;;;;6.45;1.80;;;16.50;99.90;;;;;;5033958;28;20429;-69
2022/07/07 06:25:10;;;;;;;7.75;1.50;;;16.40;99.90;;;;;;5033657;28;20052;-68
2022/07/07 06:27:36;;;;;;;11.32;3.25;;;16.50;99.90;;;;;;5051449;28;20098;-68
2022/07/07 06:30:04;;;;;;;6.38;1.90;;;16.80;99.90;;;;;;5033671;28;20372;-68
2022/07/07 06:32:30;;;;;;;7.28;2.30;;;16.80;99.90;;;;;;5017174;28;20133;-69
2022/07/07 06:34:55;;;;;;;3.95;1.30;;;18.50;99.90;;;;;;5032879;28;20089;-68
2022/07/07 06:37:21;;;;;;;7.55;1.83;;;18.50;99.90;;;;;;5033509;28;20126;-70
2022/07/07 06:39:47;;;;;;;7.00;1.90;;;16.70;99.90;;;;;;5051190;28;20495;-68
2022/07/07 06:42:12;;;;;;;7.95;1.60;;;17.10;99.90;;;;;;5051288;28;20044;-68
2022/07/07 06:44:38;;;;;;;6.25;1.08;;;17.00;99.90;;;;;;5038730;28;20072;-68
2022/07/07 06:47:04;;;;;;;4.93;1.73;;;17.60;99.90;;;;;;5013666;28;20042;-70
2022/07/07 06:49:29;;;;;;;2.47;0.70;;;17.20;99.90;;;;;;5031196;28;20037;-68
2022/07/07 06:51:55;;;;;;;8.20;2.25;;;17.40;99.90;;;;;;4996488;28;20527;-68
2022/07/07 06:54:22;;;;;;;6.75;2.50;;;17.20;99.90;;;;;;5039464;28;20548;-68
2022/07/07 06:56:48;;;;;;;5.38;1.95;;;17.40;99.90;;;;;;5033628;28;20132;-68
2022/07/07 06:59:15;;;;;;;7.07;2.00;;;17.30;99.90;;;;;;5033260;28;20045;-70
2022/07/07 07:01:41;;;;;;;3.88;1.85;;;17.10;99.90;;;;;;5033307;28;20380;-69
2022/07/07 07:04:09;;;;;;;6.68;1.40;;;18.40;99.90;;;;;;5047863;28;20090;-68
2022/07/07 07:06:34;;;;;;;5.90;1.67;;;17.50;99.90;;;;;;5033537;28;20102;-68
2022/07/07 07:09:00;;;;;;;8.98;2.30;;;16.70;99.90;;;;;;5050926;28;20040;-68
2022/07/07 07:11:27;;;;;;;6.15;1.17;;;16.50;99.90;;;;;;5050917;28;20040;-68
2022/07/07 07:13:52;;;;;;;4.25;1.13;;;16.80;99.90;;;;;;5028876;28;20037;-68
2022/07/07 07:16:18;;;;;;;9.70;1.95;;;16.60;99.90;;;;;;5013749;28;20037;-68
2022/07/07 07:18:44;;;;;;;3.28;1.25;;;16.60;99.90;;;;;;5031148;28;20112;-68
2022/07/07 07:21:12;;;;;;;8.15;2.00;;;16.60;99.90;;;;;;5031119;28;20402;-68
2022/07/07 07:23:38;;;;;;;11.57;2.67;;;17.20;99.90;;;;;;5036272;28;20033;-69
2022/07/07 07:26:08;;;;;;;9.48;2.47;;;18.00;99.90;;;;;;5051836;28;20037;-69
2022/07/07 07:28:34;;;;;;;6.47;2.55;;;16.80;99.90;;;;;;5052101;28;20040;-68
2022/07/07 07:31:01;;;;;;;9.00;1.85;;;16.80;99.90;;;;;;5033471;28;20041;-70
2022/07/07 07:33:27;;;;;;;4.47;1.52;;;17.10;99.90;;;;;;5031066;28;20044;-69
2022/07/07 07:35:53;;;;;;;6.15;2.17;;;16.90;99.90;;;;;;5013837;28;20038;-68
2022/07/07 07:38:19;;;;;;;12.02;3.30;;;18.80;99.90;;;;;;5013442;28;20088;-70
2022/07/07 07:40:44;;;;;;;6.90;1.23;;;17.40;99.90;;;;;;5012746;28;20174;-68
2022/07/07 07:43:11;;;;;;;6.10;1.63;;;18.00;99.90;;;;;;5013160;28;20124;-69
2022/07/07 07:45:37;;;;;;;5.00;1.70;;;17.70;99.90;;;;;;5032964;28;20115;-68
2022/07/07 07:48:04;;;;;;;7.60;2.22;;;17.70;99.90;;;;;;5049545;28;20056;-69
2022/07/07 07:50:30;;;;;;;7.68;2.03;;;17.90;99.90;;;;;;5032628;28;20029;-68
2022/07/07 07:52:56;;;;;;;4.32;1.40;;;17.60;99.90;;;;;;5032956;28;20087;-69
2022/07/07 07:55:23;;;;;;;7.88;1.50;;;17.90;99.90;;;;;;5020372;28;20041;-68
2022/07/07 07:57:50;;;;;;;4.93;1.40;;;17.50;99.90;;;;;;5048449;28;20404;-68
2022/07/07 08:00:18;;;;;;;4.38;1.42;;;17.20;99.90;;;;;;5059632;28;20041;-71
2022/07/07 08:02:45;;;;;;;7.53;1.50;;;17.20;99.90;;;;;;5021116;28;20568;-68
2022/07/07 08:05:11;;;;;;;4.65;1.20;;;17.20;99.90;;;;;;5033117;28;20037;-69
2022/07/07 08:07:38;;;;;;;10.18;2.78;;;17.30;99.90;;;;;;5029683;28;20082;-70
2022/07/07 08:10:05;;;;;;;5.88;2.88;;;17.70;99.90;;;;;;5026892;28;20213;-68
2022/07/07 08:12:30;;;;;;;8.07;2.60;;;17.40;99.90;;;;;;5049430;28;20037;-68
2022/07/07 08:14:56;;;;;;;6.30;1.88;;;17.40;99.90;;;;;;5028398;28;20043;-68
2022/07/07 08:17:22;;;;;;;7.43;1.55;;;17.40;99.90;;;;;;5049658;28;20056;-69
2022/07/07 08:19:47;;;;;;;9.02;2.28;;;17.30;99.90;;;;;;5052623;28;20040;-69
2022/07/07 08:22:13;;;;;;;11.15;3.38;;;17.70;99.90;;;;;;5050396;28;20410;-69
2022/07/07 08:24:39;;;;;;;11.65;2.60;;;17.90;99.90;;;;;;5035042;28;20399;-69
2022/07/07 08:27:04;;;;;;;7.13;1.55;;;17.80;99.90;;;;;;5031446;28;20060;-69
2022/07/07 08:29:30;;;;;;;9.77;3.08;;;17.50;99.90;;;;;;5016051;28;20406;-69
2022/07/07 08:31:59;;;;;;;6.72;1.90;;;17.50;99.90;;;;;;5023756;28;20438;-69
2022/07/07 08:34:26;;;;;;;6.07;1.80;;;17.70;99.90;;;;;;5022218;28;20072;-68
2022/07/07 08:36:52;;;;;;;8.15;1.90;;;17.50;99.90;;;;;;5005896;28;20037;-69
2022/07/07 08:39:18;;;;;;;6.40;1.73;;;17.80;99.90;;;;;;5032558;28;20106;-69
2022/07/07 08:41:43;;;;;;;8.27;2.47;;;19.30;99.90;;;;;;5052172;28;20111;-69
2022/07/07 08:44:10;;;;;;;7.00;1.98;;;17.70;99.90;;;;;;5032328;28;20045;-69
2022/07/07 08:46:35;;;;;;;9.45;2.00;;;17.70;99.90;;;;;;5029742;28;20458;-69
2022/07/07 08:49:01;;;;;;;7.50;1.35;;;18.20;99.90;;;;;;5034604;28;20033;-68
2022/07/07 08:51:26;;;;;;;5.07;1.40;;;19.00;99.90;;;;;;5034126;28;20408;-70
2022/07/07 08:53:52;;;;;;;8.98;1.98;;;18.60;99.90;;;;;;5030139;28;20090;-69
2022/07/07 08:56:19;;;;;;;5.28;1.60;;;18.60;99.90;;;;;;5018520;28;20036;-68
2022/07/07 08:58:45;;;;;;;9.38;1.70;;;18.20;99.90;;;;;;5033877;28;20053;-68
2022/07/07 09:01:11;;;;;;;4.15;1.50;;;17.90;99.90;;;;;;5052915;28;20049;-68
2022/07/07 09:03:36;;;;;;;9.20;1.45;;;17.70;99.90;;;;;;5026751;28;20045;-68
2022/07/07 09:06:02;;;;;;;5.47;1.40;;;17.60;99.90;;;;;;5019106;28;20029;-68
2022/07/07 09:08:30;;;;;;;6.25;2.03;;;17.80;99.90;;;;;;5033234;28;20037;-69
2022/07/07 09:10:56;;;;;;;4.20;1.23;;;18.00;99.90;;;;;;5014981;28;20048;-69
2022/07/07 09:13:28;;;;;;;4.88;1.42;;;18.30;99.90;;;;;;5031017;28;20049;-68
2022/07/07 09:15:56;;;;;;;10.30;1.13;;;18.40;99.90;;;;;;5034216;28;20045;-69
2022/07/07 09:18:32;;;;;;;7.53;2.00;;;18.30;99.90;;;;;;5035023;28;20091;-70
2022/07/07 09:20:58;;;;;;;7.20;1.90;;;18.60;99.90;;;;;;5030468;28;20529;-69
2022/07/07 09:23:24;;;;;;;8.25;1.83;;;18.70;99.90;;;;;;5043962;28;20072;-69
2022/07/07 09:25:50;;;;;;;7.05;1.40;;;18.60;99.90;;;;;;5028469;28;20090;-68
2022/07/07 09:28:16;;;;;;;9.60;1.50;;;17.50;99.90;;;;;;5032664;28;20048;-68
2022/07/07 09:30:44;;;;;;;5.32;0.90;;;19.30;99.90;;;;;;5032883;28;20025;-68
2022/07/07 09:33:12;;;;;;;2.95;0.85;;;17.90;99.90;;;;;;5034381;28;20055;-68
2022/07/07 09:38:24;;;;;;;6.40;1.98;;;18.00;99.90;;;;;;5045384;28;20454;-68
2022/07/07 09:40:52;;;;;;;7.32;1.20;;;17.80;99.90;;;;;;5033700;28;20056;-68
2022/07/07 09:43:19;;;;;;;7.13;1.50;;;17.60;99.90;;;;;;5023654;28;20403;-68
2022/07/07 09:46:23;;;;;;;8.20;1.60;;;17.40;99.90;;;;;;5016143;28;20038;-68
2022/07/07 09:48:50;;;;;;;;;;;17.20;99.90;;;;;;5037183;28;20041;-68
2022/07/07 09:51:30;;;;;;;2.15;0.70;;;17.30;99.90;;;;;;5045192;28;19990;-68
2022/07/07 09:54:04;;;;;;;2.45;0.80;;;17.10;99.90;;;;;;5024481;28;20041;-69
2022/07/07 09:56:36;;;;;;;4.05;1.35;;;17.30;99.90;;;;;;5034112;28;20051;-69
2022/07/07 09:59:04;;;;;;;4.57;1.77;;;17.20;99.90;;;;;;5033465;28;20040;-69
2022/07/07 10:01:33;;;;;;;4.90;1.10;;;17.80;99.90;;;;;;5031913;28;20525;-70
2022/07/07 10:04:01;;;;;;;4.30;1.05;;;17.80;99.90;;;;;;5030298;28;20385;-68
2022/07/07 10:06:29;;;;;;;15.05;2.33;;;18.50;99.90;;;;;;5039925;28;20037;-70
2022/07/07 10:08:57;;;;;;;5.80;1.27;;;18.00;99.90;;;;;;5030677;28;20041;-68
2022/07/07 10:11:29;;;;;;;6.88;1.58;;;17.50;99.90;;;;;;5033487;28;20099;-68
2022/07/07 10:14:02;;;;;;;11.50;2.10;;;17.10;99.90;;;;;;5048882;28;20043;-68
2022/07/07 10:16:28;;;;;;;11.40;1.98;;;18.10;99.90;;;;;;5049276;28;20503;-68
2022/07/07 10:18:54;;;;;;;13.98;2.20;;;17.00;99.90;;;;;;5033037;28;20048;-68
2022/07/07 10:21:19;;;;;;;10.43;1.88;;;17.00;99.90;;;;;;5032633;28;20515;-68
2022/07/07 10:23:47;;;;;;;25.95;2.83;;;16.90;99.90;;;;;;5033630;28;20078;-68
2022/07/07 10:26:12;;;;;;;10.85;1.95;;;17.00;99.90;;;;;;5032865;28;20102;-68
2022/07/07 10:28:54;;;;;;;4.47;1.48;;;17.00;99.90;;;;;;5033377;28;20491;-68
2022/07/07 10:31:24;;;;;;;13.05;2.05;;;17.40;99.90;;;;;;5050813;28;20041;-68
2022/07/07 10:34:27;;;;;;;12.50;1.80;;;17.50;99.90;;;;;;5013706;28;20037;-68
2022/07/07 10:36:53;;;;;;;13.18;2.67;;;19.30;99.90;;;;;;4966873;28;20053;-68
2022/07/07 10:39:23;;;;;;;20.63;2.50;;;17.20;99.90;;;;;;5015234;28;20533;-68
2022/07/07 10:41:54;;;;;;;9.95;2.13;;;17.40;99.90;;;;;;5032966;28;20070;-68
2022/07/07 10:44:21;;;;;;;6.95;1.77;;;17.50;99.90;;;;;;5049804;28;20118;-68
2022/07/07 10:47:25;;;;;;;12.32;2.63;;;17.30;99.90;;;;;;5033203;28;20033;-68
2022/07/07 10:49:55;;;;;;;15.07;3.72;;;17.10;99.90;;;;;;5050273;28;20083;-68
2022/07/07 10:52:38;;;;;;;17.83;2.58;;;17.10;99.90;;;;;;5030102;28;20072;-68
2022/07/07 10:55:04;;;;;;;12.18;2.92;;;17.00;99.90;;;;;;5029705;28;20602;-68
2022/07/07 10:57:42;;;;;;;24.35;3.78;;;17.40;99.90;;;;;;5030380;28;20041;-69
2022/07/07 11:00:26;;;;;;;16.35;3.13;;;17.40;99.90;;;;;;5031192;28;20112;-69
2022/07/07 11:03:08;;;;;;;17.92;3.05;;;17.20;99.90;;;;;;5031978;28;20518;-69
2022/07/07 11:05:35;;;;;;;11.27;3.28;;;17.50;99.90;;;;;;5051064;28;20521;-68
2022/07/07 11:08:03;;;;;;;13.52;2.20;;;17.40;99.90;;;;;;5033138;28;20033;-68
2022/07/07 11:10:47;;;;;;;13.75;2.17;;;18.20;99.90;;;;;;5029191;28;20128;-68
2022/07/07 11:13:16;;;;;;;10.30;2.33;;;17.70;99.90;;;;;;5015920;28;20052;-69
2022/07/07 11:15:49;;;;;;;13.38;2.20;;;17.90;99.90;;;;;;5033123;28;20041;-68
2022/07/07 11:18:17;;;;;;;19.15;3.00;;;18.10;99.90;;;;;;5033125;28;20049;-68
2022/07/07 11:20:58;;;;;;;11.32;2.42;;;19.80;99.90;;;;;;5015855;28;20037;-68
2022/07/07 11:23:26;;;;;;;10.18;3.55;;;17.90;99.90;;;;;;5050677;28;20048;-68
2022/07/07 11:25:57;;;;;;;11.93;2.70;;;18.30;99.90;;;;;;5032869;28;20029;-69
2022/07/07 11:28:25;;;;;;;10.18;2.03;;;19.30;99.90;;;;;;5028172;28;20045;-68
2022/07/07 11:31:01;;;;;;;11.15;1.83;;;18.60;99.90;;;;;;5028847;28;20557;-69
2022/07/07 11:33:26;;;;;;;13.30;1.90;;;18.50;99.90;;;;;;5010279;28;20037;-68
2022/07/07 11:35:52;;;;;;;11.57;2.60;;;18.40;99.90;;;;;;5028620;28;20048;-68
2022/07/07 11:38:17;;;;;;;13.35;1.73;;;18.10;99.90;;;;;;5024004;28;20679;-68
2022/07/07 11:40:43;;;;;;;13.63;2.53;;;18.20;99.90;;;;;;5032611;28;20041;-69
2022/07/07 11:43:25;;;;;;;11.93;2.67;;;18.50;99.90;;;;;;5030766;28;20048;-68
2022/07/07 11:45:51;;;;;;;12.40;3.22;;;18.00;99.90;;;;;;5032438;28;20040;-70
2022/07/07 11:48:16;;;;;;;16.02;2.83;;;18.00;99.90;;;;;;5020862;28;20045;-68
2022/07/07 11:50:42;;;;;;;20.90;3.47;;;18.00;99.90;;;;;;5032525;28;20548;-68
2022/07/07 11:53:08;;;;;;;17.15;2.88;;;17.90;99.90;;;;;;5047753;28;20076;-67
2022/07/07 11:55:33;;;;;;;12.60;2.88;;;18.60;99.90;;;;;;5050489;28;20033;-68
2022/07/07 11:58:01;;;;;;;14.27;2.65;;;17.70;99.90;;;;;;5032288;28;20040;-68
2022/07/07 12:00:29;;;;;;;17.33;3.47;;;17.80;99.90;;;;;;5049878;28;20441;-68
2022/07/07 12:03:00;;;;;;;16.13;3.55;;;17.70;99.90;;;;;;5032353;28;20124;-69
2022/07/07 12:05:34;;;;;;;13.52;2.25;;;17.70;99.90;;;;;;5025714;28;20042;-68
2022/07/07 12:08:02;;;;;;;15.55;3.03;;;17.60;99.90;;;;;;5050650;28;20037;-69
2022/07/07 12:10:54;;;;;;;19.77;2.97;;;17.50;99.90;;;;;;5028016;28;20055;-68
2022/07/07 12:13:20;;;;;;;12.43;2.53;;;17.60;99.90;;;;;;5025884;28;20467;-69
2022/07/07 12:15:48;;;;;;;14.48;2.97;;;17.60;99.90;;;;;;5032636;28;20049;-68
2022/07/07 12:18:32;;;;;;;15.50;3.40;;;17.50;99.90;;;;;;5015987;28;20048;-69
2022/07/07 12:21:03;;;;;;;13.13;3.13;;;17.40;99.90;;;;;;5080956;22;20744;-72
2022/07/07 12:23:29;;;;;;;9.63;2.72;;;17.40;99.90;;;;;;5058698;28;20037;-71
2022/07/07 12:26:12;;;;;;;13.07;2.78;;;17.60;99.90;;;;;;5054021;28;20041;-71
2022/07/07 12:28:38;;;;;;;13.32;3.33;;;17.70;99.90;;;;;;5058089;28;20499;-71
2022/07/07 12:31:04;;;;;;;17.45;4.00;;;18.90;99.90;;;;;;5046610;28;20037;-70
2022/07/07 12:33:40;;;;;;;14.35;3.20;;;17.80;99.90;;;;;;5046920;28;20044;-71
2022/07/07 12:36:25;;;;;;;14.55;3.05;;;17.50;99.90;;;;;;5042712;28;20407;-72
2022/07/07 12:38:57;;;;;;;14.40;3.17;;;17.60;99.90;;;;;;5022284;28;20411;-71
2022/07/07 12:41:35;;;;;;;11.00;2.63;;;17.60;99.90;;;;;;5044105;28;20053;-71
2022/07/07 12:44:26;;;;;;;15.52;2.53;;;17.70;99.90;;;;;;5038897;28;20041;-71
2022/07/07 12:46:56;;;;;;;16.25;2.50;;;17.60;99.90;;;;;;5038672;28;20033;-74